SCF3712 ZUCK-ZPPP
Flight info
| Callsign | SCF3712 |
|---|---|
| Flight time | N/A |
| Altitude | 30100 |
| Route | NUDVO1Z NUDVO W30 MEBNA MEBNA9E |
| Aircraft | A320/M-SDE3FGHIRWY/LB1 |
Departure
| Time | 2026-04-22 13:44 |
|---|---|
| Airport | Chongqing Jiangbei International Airport (ZUCK) |
Arrival
| Time | N/A |
|---|---|
| Airport | Kunming Changshui International Airport (ZPPP) |
| Time | Latitude | Longitude | Altitude | Speed | Heading |
|---|---|---|---|---|---|
| 2026-04-22 13:33 | 29.71746 | 106.65939 | 1338 ft | 0 kts | 196° |
| 2026-04-22 13:38 | 29.71730 | 106.65934 | 1337 ft | 8 kts | 196° |
| 2026-04-22 13:38 | 29.71640 | 106.65905 | 1338 ft | 15 kts | 195° |
| 2026-04-22 13:39 | 29.71550 | 106.65876 | 1338 ft | 11 kts | 188° |
| 2026-04-22 13:39 | 29.71502 | 106.65920 | 1343 ft | 9 kts | 98° |
| 2026-04-22 13:39 | 29.71494 | 106.65969 | 1337 ft | 0 kts | 106° |
| 2026-04-22 13:42 | 29.71489 | 106.65989 | 1337 ft | 9 kts | 106° |
| 2026-04-22 13:42 | 29.71463 | 106.66094 | 1337 ft | 9 kts | 105° |
| 2026-04-22 13:42 | 29.71463 | 106.66147 | 1338 ft | 6 kts | 59° |
| 2026-04-22 13:42 | 29.71495 | 106.66162 | 1337 ft | 5 kts | 13° |
| 2026-04-22 13:43 | 29.71523 | 106.66172 | 1337 ft | 4 kts | 17° |
| 2026-04-22 13:43 | 29.71524 | 106.66173 | 1337 ft | 0 kts | 17° |
| 2026-04-22 13:43 | 29.71574 | 106.66190 | 1336 ft | 29 kts | 16° |
| 2026-04-22 13:43 | 29.72010 | 106.66340 | 1333 ft | 98 kts | 17° |
| 2026-04-22 13:44 | 29.72848 | 106.66630 | 1329 ft | 151 kts | 17° |
| 2026-04-22 13:44 | 29.73983 | 106.67017 | 1447 ft | 181 kts | 16° |
| 2026-04-22 13:44 | 29.75182 | 106.67428 | 2060 ft | 185 kts | 16° |
| 2026-04-22 13:44 | 29.76424 | 106.67871 | 2703 ft | 189 kts | 19° |
| 2026-04-22 13:45 | 29.77635 | 106.68561 | 3132 ft | 203 kts | 29° |
| 2026-04-22 13:45 | 29.78896 | 106.69457 | 3432 ft | 224 kts | 32° |
| 2026-04-22 13:45 | 29.80288 | 106.70491 | 3737 ft | 251 kts | 32° |
| 2026-04-22 13:45 | 29.81794 | 106.71608 | 4418 ft | 260 kts | 31° |
| 2026-04-22 13:46 | 29.83324 | 106.72731 | 5340 ft | 261 kts | 31° |
| 2026-04-22 13:46 | 29.84842 | 106.73895 | 6220 ft | 264 kts | 39° |
| 2026-04-22 13:46 | 29.85922 | 106.75622 | 7007 ft | 273 kts | 67° |
| 2026-04-22 13:46 | 29.86149 | 106.77811 | 7769 ft | 284 kts | 96° |
| 2026-04-22 13:47 | 29.85638 | 106.80032 | 8556 ft | 289 kts | 103° |
| 2026-04-22 13:47 | 29.85041 | 106.82262 | 9346 ft | 293 kts | 104° |
| 2026-04-22 13:47 | 29.84426 | 106.84519 | 10102 ft | 298 kts | 104° |
| 2026-04-22 13:47 | 29.83801 | 106.86818 | 10732 ft | 306 kts | 104° |
| 2026-04-22 13:48 | 29.83153 | 106.89241 | 10950 ft | 329 kts | 104° |
| 2026-04-22 13:48 | 29.82459 | 106.91864 | 11027 ft | 356 kts | 104° |
| 2026-04-22 13:48 | 29.81722 | 106.94657 | 11025 ft | 370 kts | 105° |
| 2026-04-22 13:48 | 29.80635 | 106.97352 | 11014 ft | 376 kts | 124° |
| 2026-04-22 13:49 | 29.78764 | 106.99451 | 11018 ft | 380 kts | 146° |
| 2026-04-22 13:49 | 29.76331 | 107.00615 | 11019 ft | 381 kts | 169° |
| 2026-04-22 13:49 | 29.73683 | 107.00648 | 11139 ft | 385 kts | 192° |
| 2026-04-22 13:49 | 29.71109 | 106.99790 | 11862 ft | 386 kts | 198° |
| 2026-04-22 13:50 | 29.68538 | 106.98887 | 12591 ft | 388 kts | 198° |
| 2026-04-22 13:50 | 29.65944 | 106.97992 | 13291 ft | 390 kts | 198° |
| 2026-04-22 13:50 | 29.63330 | 106.97099 | 13950 ft | 393 kts | 198° |
| 2026-04-22 13:50 | 29.60646 | 106.96415 | 14518 ft | 398 kts | 188° |
| 2026-04-22 13:51 | 29.57873 | 106.96243 | 15087 ft | 401 kts | 181° |
| 2026-04-22 13:51 | 29.55076 | 106.96220 | 15679 ft | 403 kts | 182° |
| 2026-04-22 13:51 | 29.52263 | 106.96190 | 16251 ft | 405 kts | 183° |
| 2026-04-22 13:51 | 29.49436 | 106.96154 | 16798 ft | 408 kts | 183° |
| 2026-04-22 13:52 | 29.46606 | 106.95911 | 17292 ft | 408 kts | 192° |
| 2026-04-22 13:52 | 29.43860 | 106.95117 | 17817 ft | 407 kts | 202° |
| 2026-04-22 13:52 | 29.41305 | 106.93831 | 18337 ft | 407 kts | 210° |
| 2026-04-22 13:52 | 29.38775 | 106.92369 | 18806 ft | 408 kts | 210° |
| 2026-04-22 13:53 | 29.36198 | 106.90883 | 19294 ft | 410 kts | 210° |
| 2026-04-22 13:53 | 29.33639 | 106.89412 | 19768 ft | 412 kts | 210° |
| 2026-04-22 13:53 | 29.31073 | 106.87939 | 20244 ft | 413 kts | 210° |
| 2026-04-22 13:53 | 29.28535 | 106.86481 | 20721 ft | 414 kts | 211° |
| 2026-04-22 13:54 | 29.25960 | 106.85000 | 21192 ft | 416 kts | 211° |
| 2026-04-22 13:54 | 29.23365 | 106.83513 | 21645 ft | 418 kts | 211° |
| 2026-04-22 13:54 | 29.20760 | 106.82026 | 22086 ft | 420 kts | 211° |
| 2026-04-22 13:54 | 29.18142 | 106.80530 | 22527 ft | 422 kts | 211° |
| 2026-04-22 13:55 | 29.15508 | 106.79024 | 22959 ft | 424 kts | 211° |
| 2026-04-22 13:55 | 29.12859 | 106.77510 | 23358 ft | 427 kts | 211° |
| 2026-04-22 13:55 | 29.10189 | 106.75986 | 23686 ft | 430 kts | 211° |
| 2026-04-22 13:55 | 29.07517 | 106.74459 | 24062 ft | 430 kts | 211° |
| 2026-04-22 13:56 | 29.04838 | 106.72926 | 24428 ft | 431 kts | 211° |
| 2026-04-22 13:56 | 29.02158 | 106.71396 | 24853 ft | 430 kts | 211° |
| 2026-04-22 13:56 | 28.99482 | 106.69869 | 25262 ft | 430 kts | 211° |
| 2026-04-22 13:56 | 28.96797 | 106.68339 | 25549 ft | 432 kts | 211° |
| 2026-04-22 13:57 | 28.94100 | 106.66807 | 25842 ft | 434 kts | 211° |
| 2026-04-22 13:57 | 28.91395 | 106.65271 | 26172 ft | 435 kts | 211° |
| 2026-04-22 13:57 | 28.88682 | 106.63731 | 26489 ft | 436 kts | 211° |
| 2026-04-22 13:57 | 28.85968 | 106.62190 | 26720 ft | 437 kts | 211° |
| 2026-04-22 13:58 | 28.83244 | 106.60643 | 27030 ft | 437 kts | 211° |
| 2026-04-22 13:58 | 28.80520 | 106.59094 | 27352 ft | 438 kts | 211° |
| 2026-04-22 13:58 | 28.77789 | 106.57543 | 27639 ft | 439 kts | 211° |
| 2026-04-22 13:58 | 28.75052 | 106.56001 | 27951 ft | 440 kts | 209° |
| 2026-04-22 13:59 | 28.72159 | 106.54785 | 28254 ft | 447 kts | 200° |
| 2026-04-22 13:59 | 28.69087 | 106.54134 | 28680 ft | 453 kts | 191° |
| 2026-04-22 13:59 | 28.65925 | 106.54027 | 29124 ft | 455 kts | 186° |
| 2026-04-22 13:59 | 28.62764 | 106.54037 | 29569 ft | 453 kts | 186° |
| 2026-04-22 14:00 | 28.59619 | 106.54042 | 29967 ft | 451 kts | 187° |
| 2026-04-22 14:00 | 28.56483 | 106.54043 | 30135 ft | 450 kts | 187° |
| 2026-04-22 14:00 | 28.50237 | 106.54046 | 30139 ft | 449 kts | 187° |
| 2026-04-22 14:01 | 28.43934 | 106.54049 | 30164 ft | 455 kts | 187° |
| 2026-04-22 14:01 | 28.37602 | 106.54062 | 30164 ft | 455 kts | 187° |
| 2026-04-22 14:02 | 28.31265 | 106.54074 | 30154 ft | 455 kts | 187° |
| 2026-04-22 14:02 | 28.24931 | 106.54079 | 30157 ft | 455 kts | 187° |
| 2026-04-22 14:03 | 28.18615 | 106.53916 | 30128 ft | 448 kts | 196° |
| 2026-04-22 14:03 | 28.15644 | 106.53067 | 30128 ft | 436 kts | 208° |
| 2026-04-22 14:03 | 28.13832 | 106.52135 | 30131 ft | 429 kts | 216° |
| 2026-04-22 14:04 | 28.09357 | 106.47918 | 30131 ft | 414 kts | 236° |
| 2026-04-22 14:04 | 28.06704 | 106.42265 | 30129 ft | 406 kts | 252° |
| 2026-04-22 14:05 | 28.04725 | 106.36265 | 30135 ft | 407 kts | 251° |
| 2026-04-22 14:06 | 28.01714 | 106.27273 | 30144 ft | 407 kts | 251° |
| 2026-04-22 14:06 | 27.99700 | 106.21283 | 30147 ft | 407 kts | 251° |
| 2026-04-22 14:07 | 27.97695 | 106.15305 | 30148 ft | 405 kts | 251° |
| 2026-04-22 14:07 | 27.95717 | 106.09366 | 30187 ft | 402 kts | 252° |
| 2026-04-22 14:08 | 27.93778 | 106.03459 | 30193 ft | 399 kts | 252° |
| 2026-04-22 14:08 | 27.91848 | 105.97579 | 30186 ft | 399 kts | 252° |
| 2026-04-22 14:09 | 27.89909 | 105.91695 | 30162 ft | 399 kts | 252° |
| 2026-04-22 14:09 | 27.87961 | 105.85817 | 30152 ft | 399 kts | 252° |
| 2026-04-22 14:10 | 27.86005 | 105.79940 | 30154 ft | 400 kts | 251° |
| 2026-04-22 14:10 | 27.84055 | 105.74045 | 30159 ft | 401 kts | 251° |
| 2026-04-22 14:11 | 27.82100 | 105.68153 | 30163 ft | 401 kts | 251° |
| 2026-04-22 14:11 | 27.80136 | 105.62264 | 30166 ft | 401 kts | 251° |
| 2026-04-22 14:12 | 27.78172 | 105.56371 | 30156 ft | 401 kts | 251° |
| 2026-04-22 14:12 | 27.76204 | 105.50482 | 30170 ft | 401 kts | 252° |
| 2026-04-22 14:13 | 27.74234 | 105.44601 | 30194 ft | 400 kts | 252° |
| 2026-04-22 14:13 | 27.72268 | 105.38738 | 30187 ft | 399 kts | 252° |
| 2026-04-22 14:14 | 27.70304 | 105.32882 | 30180 ft | 399 kts | 252° |
| 2026-04-22 14:14 | 27.68347 | 105.27069 | 30181 ft | 399 kts | 252° |
| 2026-04-22 14:15 | 27.66377 | 105.21205 | 30183 ft | 400 kts | 252° |
| 2026-04-22 14:15 | 27.64399 | 105.15346 | 30184 ft | 400 kts | 252° |
| 2026-04-22 14:16 | 27.61693 | 105.09853 | 30183 ft | 408 kts | 235° |
| 2026-04-22 14:16 | 27.57632 | 105.05293 | 30193 ft | 413 kts | 230° |
| 2026-04-22 14:17 | 27.53501 | 105.00788 | 30190 ft | 413 kts | 230° |
| 2026-04-22 14:17 | 27.49369 | 104.96273 | 30192 ft | 414 kts | 230° |
| 2026-04-22 14:18 | 27.45234 | 104.91764 | 30215 ft | 414 kts | 231° |
| 2026-04-22 14:18 | 27.41089 | 104.87253 | 30213 ft | 414 kts | 230° |
| 2026-04-22 14:19 | 27.36938 | 104.82743 | 30211 ft | 415 kts | 230° |
| 2026-04-22 14:19 | 27.32773 | 104.78235 | 30216 ft | 415 kts | 230° |
| 2026-04-22 14:20 | 27.26536 | 104.71478 | 30220 ft | 414 kts | 230° |
| 2026-04-22 14:20 | 27.22393 | 104.66997 | 30241 ft | 413 kts | 230° |
| 2026-04-22 14:21 | 27.16166 | 104.60336 | 30279 ft | 412 kts | 230° |
| 2026-04-22 14:22 | 27.09951 | 104.53703 | 30261 ft | 410 kts | 230° |
| 2026-04-22 14:23 | 27.03761 | 104.47083 | 30263 ft | 410 kts | 230° |
| 2026-04-22 14:23 | 26.99630 | 104.42674 | 30231 ft | 410 kts | 229° |
| 2026-04-22 14:24 | 26.95491 | 104.38268 | 30225 ft | 411 kts | 229° |
| 2026-04-22 14:24 | 26.91338 | 104.33856 | 30253 ft | 411 kts | 229° |
| 2026-04-22 14:25 | 26.87182 | 104.29440 | 30263 ft | 412 kts | 229° |
| 2026-04-22 14:25 | 26.82954 | 104.25145 | 30254 ft | 415 kts | 226° |
| 2026-04-22 14:26 | 26.78499 | 104.21028 | 30263 ft | 416 kts | 226° |
| 2026-04-22 14:26 | 26.74020 | 104.16952 | 30238 ft | 414 kts | 226° |
| 2026-04-22 14:27 | 26.72520 | 104.15571 | 30245 ft | 413 kts | 226° |